Time;durP1;ratioP1;P1;durP2;ratioP2;P2;SDS_P1;SDS_P2;PMS_P1;PMS_P2;Temp;Humidity;BMP_temperature;BMP_pressure;BME280_temperature;BME280_humidity;BME280_pressure;Samples;Min_cycle;Max_cycle;Signal;HPM_P1;HPM_P2
2023/05/21 00:01:38;;;;;;;11.57;9.87;;;;;;;;;;5059748;28;20277;-68
2023/05/21 00:04:06;;;;;;;10.90;9.60;;;;;;;;;;5059630;28;20171;-68
2023/05/21 00:06:34;;;;;;;13.00;10.40;;;;;;;;;;5058118;28;20648;-68
2023/05/21 00:09:00;;;;;;;11.33;9.73;;;;;;;;;;5055814;28;20205;-67
2023/05/21 00:11:26;;;;;;;16.70;10.37;;;;;;;;;;5038377;28;20182;-67
2023/05/21 00:13:52;;;;;;;10.43;9.37;;;;;;;;;;5038524;28;20598;-67
2023/05/21 00:16:18;;;;;;;11.93;9.50;;;;;;;;;;5056049;28;20177;-67
2023/05/21 00:18:44;;;;;;;11.37;9.33;;;;;;;;;;5055965;28;20614;-67
2023/05/21 00:21:11;;;;;;;11.40;8.77;;;;;;;;;;5056163;28;20224;-68
2023/05/21 00:23:38;;;;;;;13.63;9.93;;;;;;;;;;5056109;28;20178;-67
2023/05/21 00:26:04;;;;;;;10.23;8.37;;;;;;;;;;5037970;28;20186;-67
2023/05/21 00:28:30;;;;;;;9.40;8.50;;;;;;;;;;5056620;28;20202;-67
2023/05/21 00:30:56;;;;;;;10.17;8.13;;;;;;;;;;5056181;28;20177;-68
2023/05/21 00:33:25;;;;;;;9.47;8.57;;;;;;;;;;5056629;28;20202;-68
2023/05/21 00:35:51;;;;;;;9.60;8.60;;;;;;;;;;5057112;28;20174;-68
2023/05/21 00:38:17;;;;;;;9.67;8.67;;;;;;;;;;5072042;28;20195;-68
2023/05/21 00:40:43;;;;;;;10.10;8.77;;;;;;;;;;5071390;28;20178;-68
2023/05/21 00:43:09;;;;;;;10.83;9.20;;;;;;;;;;5070130;28;20175;-69
2023/05/21 00:45:36;;;;;;;10.97;8.80;;;;;;;;;;5069499;28;20197;-68
2023/05/21 00:48:05;;;;;;;12.80;9.70;;;;;;;;;;5052947;28;20194;-68
2023/05/21 00:50:31;;;;;;;12.03;9.30;;;;;;;;;;5071136;28;20229;-68
2023/05/21 00:52:58;;;;;;;15.63;9.03;;;;;;;;;;5052750;28;20595;-69
2023/05/21 00:55:24;;;;;;;9.83;8.87;;;;;;;;;;5039930;28;20714;-67
2023/05/21 00:57:50;;;;;;;11.97;9.30;;;;;;;;;;5039507;28;20229;-67
2023/05/21 01:00:16;;;;;;;10.77;9.50;;;;;;;;;;5039287;28;20190;-68
2023/05/21 01:02:44;;;;;;;11.67;8.90;;;;;;;;;;5056796;28;20548;-67
2023/05/21 01:05:10;;;;;;;9.83;8.47;;;;;;;;;;5056588;28;20185;-68
2023/05/21 01:07:38;;;;;;;10.53;8.93;;;;;;;;;;5056662;28;20202;-67
2023/05/21 01:10:06;;;;;;;9.50;8.33;;;;;;;;;;5037731;28;20746;-68
2023/05/21 01:12:32;;;;;;;8.67;7.87;;;;;;;;;;5055887;28;20170;-67
2023/05/21 01:15:05;;;;;;;11.23;8.50;;;;;;;;;;5037588;28;20185;-67
2023/05/21 01:17:32;;;;;;;11.23;8.77;;;;;;;;;;5037452;28;20237;-68
2023/05/21 01:19:59;;;;;;;10.47;8.93;;;;;;;;;;5055124;28;20547;-68
2023/05/21 01:22:27;;;;;;;9.03;8.13;;;;;;;;;;5055961;28;20241;-68
2023/05/21 01:24:54;;;;;;;9.33;8.43;;;;;;;;;;5055574;28;20181;-68
2023/05/21 01:27:20;;;;;;;9.40;8.50;;;;;;;;;;5056033;28;20194;-68
2023/05/21 01:29:46;;;;;;;9.80;8.53;;;;;;;;;;5037763;28;20213;-67
2023/05/21 01:32:28;;;;;;;13.33;8.87;;;;;;;;;;5055151;28;20175;-68
2023/05/21 01:35:00;;;;;;;10.77;9.53;;;;;;;;;;5036751;28;20182;-68
2023/05/21 01:37:30;;;;;;;9.67;8.67;;;;;;;;;;5054661;28;20206;-67
2023/05/21 01:39:59;;;;;;;9.43;8.53;;;;;;;;;;5036724;28;20182;-68
2023/05/21 01:42:26;;;;;;;10.00;9.00;;;;;;;;;;5054456;28;20179;-68
2023/05/21 01:44:54;;;;;;;9.87;8.40;;;;;;;;;;5036454;28;20182;-68
2023/05/21 01:47:23;;;;;;;9.83;8.57;;;;;;;;;;5054314;28;20202;-68
2023/05/21 01:49:50;;;;;;;9.97;8.87;;;;;;;;;;5036359;28;20209;-68
2023/05/21 01:52:16;;;;;;;10.83;9.00;;;;;;;;;;5054329;28;20257;-68
2023/05/21 01:54:42;;;;;;;10.27;8.80;;;;;;;;;;5054693;28;20210;-68
2023/05/21 01:57:08;;;;;;;13.63;9.00;;;;;;;;;;5054066;28;20175;-68
2023/05/21 01:59:35;;;;;;;12.37;8.90;;;;;;;;;;5054383;28;20186;-68
2023/05/21 02:02:01;;;;;;;9.17;8.17;;;;;;;;;;5036257;28;20239;-67
2023/05/21 02:04:27;;;;;;;11.87;8.60;;;;;;;;;;5061518;28;20183;-67
2023/05/21 02:06:53;;;;;;;10.27;9.07;;;;;;;;;;5051012;28;20187;-68
2023/05/21 02:09:19;;;;;;;9.33;8.27;;;;;;;;;;5065324;28;20205;-68
2023/05/21 02:11:45;;;;;;;11.17;8.67;;;;;;;;;;5054808;28;20178;-67
2023/05/21 02:14:12;;;;;;;11.73;8.13;;;;;;;;;;5054300;28;20521;-68
2023/05/21 02:16:38;;;;;;;9.13;8.20;;;;;;;;;;5035917;28;20189;-68
2023/05/21 02:19:05;;;;;;;9.57;8.37;;;;;;;;;;5053752;28;20206;-68
2023/05/21 02:21:31;;;;;;;9.03;8.23;;;;;;;;;;5035894;28;20178;-68
2023/05/21 02:23:57;;;;;;;9.73;8.43;;;;;;;;;;5035687;28;20267;-68
2023/05/21 02:26:23;;;;;;;8.63;7.80;;;;;;;;;;5053634;28;20175;-67
2023/05/21 02:28:51;;;;;;;8.67;7.87;;;;;;;;;;5053487;28;20577;-67
2023/05/21 02:31:17;;;;;;;9.20;7.37;;;;;;;;;;5053277;28;20174;-67
2023/05/21 02:33:43;;;;;;;9.40;8.33;;;;;;;;;;5053921;28;20228;-67
2023/05/21 02:36:14;;;;;;;10.43;8.00;;;;;;;;;;5067239;28;20171;-70
2023/05/21 02:38:42;;;;;;;11.20;8.73;;;;;;;;;;5069362;28;20222;-69
2023/05/21 02:41:08;;;;;;;8.83;7.90;;;;;;;;;;5047174;28;20185;-69
2023/05/21 02:43:34;;;;;;;9.77;8.40;;;;;;;;;;5065625;28;20182;-67
2023/05/21 02:46:00;;;;;;;8.93;8.03;;;;;;;;;;5038264;28;20209;-67
2023/05/21 02:48:26;;;;;;;9.93;8.23;;;;;;;;;;5053223;28;20198;-68
2023/05/21 02:50:53;;;;;;;9.07;7.87;;;;;;;;;;5053905;28;20178;-68
2023/05/21 02:53:19;;;;;;;9.23;8.33;;;;;;;;;;5053578;28;20228;-66
2023/05/21 02:55:45;;;;;;;10.17;8.17;;;;;;;;;;5053843;28;20576;-68
2023/05/21 02:58:12;;;;;;;8.30;7.50;;;;;;;;;;5035339;28;20249;-67
2023/05/21 03:00:38;;;;;;;12.37;8.07;;;;;;;;;;5053364;28;20547;-67
2023/05/21 03:03:04;;;;;;;8.73;7.80;;;;;;;;;;5053742;28;20206;-67
2023/05/21 03:05:30;;;;;;;12.83;8.83;;;;;;;;;;5035466;28;20525;-67
2023/05/21 03:07:56;;;;;;;12.47;8.70;;;;;;;;;;5035416;28;20778;-67
2023/05/21 03:10:22;;;;;;;12.17;9.03;;;;;;;;;;5053478;28;20277;-68
2023/05/21 03:12:48;;;;;;;10.27;8.50;;;;;;;;;;5053153;28;20206;-67
2023/05/21 03:15:14;;;;;;;9.43;8.17;;;;;;;;;;5053150;28;20201;-67
2023/05/21 03:17:43;;;;;;;10.70;8.70;;;;;;;;;;5035124;28;20567;-67
2023/05/21 03:20:15;;;;;;;10.20;8.70;;;;;;;;;;5052946;28;20185;-67
2023/05/21 03:22:41;;;;;;;10.87;8.17;;;;;;;;;;5053276;28;20174;-67
2023/05/21 03:25:08;;;;;;;11.03;8.20;;;;;;;;;;5053008;28;20192;-67
2023/05/21 03:27:33;;;;;;;10.87;8.20;;;;;;;;;;5052969;28;20305;-67
2023/05/21 03:30:00;;;;;;;10.10;8.03;;;;;;;;;;5034903;28;20719;-67
2023/05/21 03:32:26;;;;;;;10.57;8.70;;;;;;;;;;5035069;28;20232;-67
2023/05/21 03:34:51;;;;;;;10.73;8.13;;;;;;;;;;5035016;28;20181;-67
2023/05/21 03:37:17;;;;;;;13.40;8.20;;;;;;;;;;5034934;28;20648;-66
2023/05/21 03:39:43;;;;;;;8.57;7.77;;;;;;;;;;5053092;28;20679;-67
2023/05/21 03:42:09;;;;;;;12.13;8.53;;;;;;;;;;5036999;28;20186;-67
2023/05/21 03:44:35;;;;;;;9.83;7.80;;;;;;;;;;5038503;28;20269;-67
2023/05/21 03:47:01;;;;;;;9.40;7.80;;;;;;;;;;5056584;28;20588;-67
2023/05/21 03:49:27;;;;;;;8.83;7.93;;;;;;;;;;5056454;28;20599;-67
2023/05/21 03:51:53;;;;;;;8.90;8.10;;;;;;;;;;5038600;28;20273;-67
2023/05/21 03:54:19;;;;;;;10.57;8.37;;;;;;;;;;5056537;28;20208;-67
2023/05/21 03:56:45;;;;;;;8.80;7.77;;;;;;;;;;5056835;28;20511;-67
2023/05/21 03:59:11;;;;;;;8.63;7.73;;;;;;;;;;5056214;28;20300;-67
2023/05/21 04:01:37;;;;;;;9.93;8.13;;;;;;;;;;5056059;28;20190;-67
2023/05/21 04:04:03;;;;;;;10.13;8.03;;;;;;;;;;5056207;28;20171;-65
2023/05/21 04:06:29;;;;;;;9.47;7.00;;;;;;;;;;5056240;28;20178;-67
2023/05/21 04:08:55;;;;;;;9.10;8.20;;;;;;;;;;5056872;28;20212;-69
2023/05/21 04:11:21;;;;;;;10.80;8.33;;;;;;;;;;5056101;28;20213;-67
2023/05/21 04:13:47;;;;;;;8.57;7.77;;;;;;;;;;5056181;28;20177;-67
2023/05/21 04:16:17;;;;;;;8.87;8.00;;;;;;;;;;5056225;28;20174;-66
2023/05/21 04:18:44;;;;;;;9.37;8.43;;;;;;;;;;5038365;28;20222;-67
2023/05/21 04:21:10;;;;;;;8.87;8.00;;;;;;;;;;5037969;28;20226;-67
2023/05/21 04:23:36;;;;;;;10.37;9.27;;;;;;;;;;5056089;28;20183;-67
2023/05/21 04:26:02;;;;;;;9.37;8.40;;;;;;;;;;5038041;28;20292;-67
2023/05/21 04:28:28;;;;;;;12.80;9.00;;;;;;;;;;5055729;28;20261;-67
2023/05/21 04:30:55;;;;;;;9.80;8.80;;;;;;;;;;5056000;28;20178;-67
2023/05/21 04:33:21;;;;;;;10.17;8.83;;;;;;;;;;5055884;28;20201;-68
2023/05/21 04:35:48;;;;;;;8.67;7.67;;;;;;;;;;5037622;28;20187;-67
2023/05/21 04:38:18;;;;;;;9.43;8.53;;;;;;;;;;5037544;28;20198;-67
2023/05/21 04:40:44;;;;;;;12.03;8.80;;;;;;;;;;5077736;23;20317;-69
2023/05/21 04:43:10;;;;;;;10.03;8.70;;;;;;;;;;5037304;28;20270;-69
2023/05/21 04:45:36;;;;;;;10.23;9.03;;;;;;;;;;5037367;28;20178;-69
2023/05/21 04:48:02;;;;;;;11.07;9.93;;;;;;;;;;5055435;28;20257;-69
2023/05/21 04:50:29;;;;;;;10.17;9.10;;;;;;;;;;5055286;28;20285;-69
2023/05/21 04:52:55;;;;;;;10.33;8.50;;;;;;;;;;5036725;28;20273;-69
2023/05/21 04:55:21;;;;;;;13.13;9.87;;;;;;;;;;5055265;28;20178;-69
2023/05/21 04:57:47;;;;;;;11.13;9.33;;;;;;;;;;5055531;28;20198;-69
2023/05/21 05:00:13;;;;;;;10.57;9.47;;;;;;;;;;5055378;28;20244;-70
2023/05/21 05:02:39;;;;;;;10.13;9.13;;;;;;;;;;5037223;28;20196;-68
2023/05/21 05:05:05;;;;;;;12.80;9.17;;;;;;;;;;5036969;28;20248;-68
2023/05/21 05:07:31;;;;;;;10.30;9.30;;;;;;;;;;5036962;28;20189;-69
2023/05/21 05:09:57;;;;;;;11.03;9.53;;;;;;;;;;5054629;28;20213;-70
2023/05/21 05:12:23;;;;;;;11.63;9.00;;;;;;;;;;5054705;28;20175;-70
2023/05/21 05:14:49;;;;;;;10.37;9.37;;;;;;;;;;5054586;28;20174;-69
2023/05/21 05:17:15;;;;;;;10.70;8.87;;;;;;;;;;5054814;28;20202;-70
2023/05/21 05:19:41;;;;;;;10.43;9.33;;;;;;;;;;5036993;28;20183;-69
2023/05/21 05:22:07;;;;;;;10.23;9.10;;;;;;;;;;5056198;28;20201;-69
2023/05/21 05:24:33;;;;;;;10.30;9.30;;;;;;;;;;5054670;28;20644;-69
2023/05/21 05:26:59;;;;;;;12.10;9.30;;;;;;;;;;5036577;28;20307;-69
2023/05/21 05:29:25;;;;;;;11.17;9.50;;;;;;;;;;5054342;28;20214;-69
2023/05/21 05:31:51;;;;;;;9.80;8.80;;;;;;;;;;5054379;28;20171;-68
2023/05/21 05:34:18;;;;;;;9.87;8.70;;;;;;;;;;5054281;28;20266;-69
2023/05/21 05:36:44;;;;;;;11.30;9.50;;;;;;;;;;5054529;28;20688;-68
2023/05/21 05:39:10;;;;;;;10.50;8.70;;;;;;;;;;5036482;28;20186;-68
2023/05/21 05:41:36;;;;;;;10.50;9.37;;;;;;;;;;5054036;28;20210;-69
2023/05/21 05:44:02;;;;;;;10.67;9.57;;;;;;;;;;5054092;28;20182;-67
2023/05/21 05:46:28;;;;;;;10.20;9.20;;;;;;;;;;5036201;28;20193;-68
2023/05/21 05:48:54;;;;;;;10.23;9.20;;;;;;;;;;5054138;28;20242;-69
2023/05/21 05:51:20;;;;;;;10.57;9.47;;;;;;;;;;5035893;28;20233;-70
2023/05/21 05:53:46;;;;;;;12.33;9.33;;;;;;;;;;5054455;28;20171;-68
2023/05/21 05:56:13;;;;;;;10.17;9.17;;;;;;;;;;5035998;28;20239;-69
2023/05/21 05:58:39;;;;;;;10.80;9.13;;;;;;;;;;5053996;28;20253;-69
2023/05/21 06:01:04;;;;;;;10.30;9.20;;;;;;;;;;5035706;28;20293;-69
2023/05/21 06:03:30;;;;;;;10.30;9.20;;;;;;;;;;5053751;28;20174;-69
2023/05/21 06:05:56;;;;;;;10.37;9.37;;;;;;;;;;5052608;28;20179;-69
2023/05/21 06:08:23;;;;;;;12.20;9.70;;;;;;;;;;5035925;28;20200;-68
2023/05/21 06:10:49;;;;;;;10.20;9.10;;;;;;;;;;5053544;28;20213;-70
2023/05/21 06:13:15;;;;;;;12.30;9.50;;;;;;;;;;5036003;28;20174;-70
2023/05/21 06:15:44;;;;;;;10.17;9.20;;;;;;;;;;5053880;28;20210;-70
2023/05/21 06:18:10;;;;;;;12.70;9.70;;;;;;;;;;5035581;28;20174;-70
2023/05/21 06:20:36;;;;;;;15.47;9.60;;;;;;;;;;5035893;28;20230;-67
2023/05/21 06:23:02;;;;;;;13.50;9.43;;;;;;;;;;5036373;28;20218;-67
2023/05/21 06:25:28;;;;;;;13.43;9.17;;;;;;;;;;5035989;28;20190;-69
2023/05/21 06:27:55;;;;;;;11.17;9.70;;;;;;;;;;5035957;28;20178;-68
2023/05/21 06:30:21;;;;;;;11.10;9.90;;;;;;;;;;5053366;28;20206;-68
2023/05/21 06:32:47;;;;;;;10.53;9.37;;;;;;;;;;5053444;28;20667;-69
2023/05/21 06:35:13;;;;;;;13.93;9.80;;;;;;;;;;5035258;28;20674;-68
2023/05/21 06:37:39;;;;;;;10.77;9.67;;;;;;;;;;5035493;28;20644;-68
2023/05/21 06:40:06;;;;;;;11.23;8.83;;;;;;;;;;5052931;28;20210;-68
2023/05/21 06:42:32;;;;;;;11.17;10.00;;;;;;;;;;5035334;28;20201;-68
2023/05/21 06:44:58;;;;;;;11.57;9.63;;;;;;;;;;5035234;28;20187;-69
2023/05/21 06:47:24;;;;;;;11.87;9.27;;;;;;;;;;5053142;28;20179;-69
2023/05/21 06:49:50;;;;;;;12.13;8.50;;;;;;;;;;5053224;28;20707;-69
2023/05/21 06:52:16;;;;;;;10.23;9.23;;;;;;;;;;5052991;28;20286;-68
2023/05/21 06:54:42;;;;;;;12.63;9.50;;;;;;;;;;5053033;28;20177;-68
2023/05/21 06:57:08;;;;;;;21.53;8.93;;;;;;;;;;5035094;28;20213;-68
2023/05/21 06:59:34;;;;;;;11.80;9.90;;;;;;;;;;5052882;28;20189;-68
2023/05/21 07:02:00;;;;;;;10.13;9.13;;;;;;;;;;5035937;28;20252;-68
2023/05/21 07:04:26;;;;;;;11.83;10.50;;;;;;;;;;5052895;28;20178;-68
2023/05/21 07:06:53;;;;;;;12.13;9.50;;;;;;;;;;5054453;28;20185;-68
2023/05/21 07:09:19;;;;;;;12.00;9.63;;;;;;;;;;5034987;28;20198;-68
2023/05/21 07:11:45;;;;;;;11.20;10.10;;;;;;;;;;5052732;28;20576;-68
2023/05/21 07:14:11;;;;;;;10.73;9.63;;;;;;;;;;5034950;28;20186;-68
2023/05/21 07:16:38;;;;;;;10.37;9.23;;;;;;;;;;5036097;28;20261;-68
2023/05/21 07:19:03;;;;;;;10.87;9.87;;;;;;;;;;5056794;28;20175;-68
2023/05/21 07:21:30;;;;;;;12.30;9.50;;;;;;;;;;5056704;28;20256;-68
2023/05/21 07:23:55;;;;;;;13.80;10.10;;;;;;;;;;5056647;28;20664;-68
2023/05/21 07:26:21;;;;;;;11.43;10.23;;;;;;;;;;5038770;28;20182;-68
2023/05/21 07:28:47;;;;;;;12.87;10.53;;;;;;;;;;5056529;28;20240;-68
2023/05/21 07:31:14;;;;;;;14.20;10.63;;;;;;;;;;5056674;28;20202;-68
2023/05/21 07:33:39;;;;;;;13.03;9.83;;;;;;;;;;5038627;28;20190;-68
2023/05/21 07:36:05;;;;;;;12.17;10.07;;;;;;;;;;5038637;28;20179;-67
2023/05/21 07:38:32;;;;;;;11.60;10.40;;;;;;;;;;5056418;28;20175;-68
2023/05/21 07:40:58;;;;;;;14.13;10.77;;;;;;;;;;5056282;28;20226;-68
2023/05/21 07:43:24;;;;;;;15.23;11.13;;;;;;;;;;5038513;28;20185;-67
2023/05/21 07:45:50;;;;;;;11.43;10.23;;;;;;;;;;5056299;28;20633;-68
2023/05/21 07:48:15;;;;;;;11.87;10.53;;;;;;;;;;5038696;28;20609;-68
2023/05/21 07:50:48;;;;;;;15.23;11.17;;;;;;;;;;5056461;28;20210;-67
2023/05/21 07:53:14;;;;;;;12.97;11.33;;;;;;;;;;5038385;28;20698;-68
2023/05/21 07:55:46;;;;;;;14.73;12.80;;;;;;;;;;5038333;28;20182;-68
2023/05/21 07:58:12;;;;;;;12.07;10.87;;;;;;;;;;5056607;28;20159;-68
2023/05/21 08:00:43;;;;;;;13.67;11.50;;;;;;;;;;5057828;28;20664;-66
2023/05/21 08:03:10;;;;;;;15.73;10.83;;;;;;;;;;5056033;28;20188;-66
2023/05/21 08:05:36;;;;;;;12.57;11.23;;;;;;;;;;5038132;28;20663;-66
2023/05/21 08:08:03;;;;;;;13.40;12.00;;;;;;;;;;5038071;28;20281;-66
2023/05/21 08:10:30;;;;;;;13.20;10.03;;;;;;;;;;5037890;28;20214;-65
2023/05/21 08:12:56;;;;;;;12.97;11.63;;;;;;;;;;5055936;28;20175;-66
2023/05/21 08:15:22;;;;;;;14.53;11.97;;;;;;;;;;5055897;28;20175;-67
2023/05/21 08:17:48;;;;;;;12.93;11.57;;;;;;;;;;5055877;28;20261;-66
2023/05/21 08:20:14;;;;;;;18.07;12.37;;;;;;;;;;5055900;28;20198;-66
2023/05/21 08:22:42;;;;;;;14.10;11.80;;;;;;;;;;5055646;28;20182;-67
2023/05/21 08:25:08;;;;;;;16.80;12.27;;;;;;;;;;5037775;28;20194;-66
2023/05/21 08:27:34;;;;;;;16.23;12.77;;;;;;;;;;5036970;28;20231;-66
2023/05/21 08:30:00;;;;;;;18.73;13.57;;;;;;;;;;5054889;28;20210;-68
2023/05/21 08:32:26;;;;;;;14.00;12.33;;;;;;;;;;5055495;28;20170;-67
2023/05/21 08:34:52;;;;;;;18.17;14.10;;;;;;;;;;5055605;28;20170;-67
2023/05/21 08:37:18;;;;;;;20.13;13.63;;;;;;;;;;5055342;28;20215;-67
2023/05/21 08:39:44;;;;;;;18.23;12.40;;;;;;;;;;5055188;28;20178;-67
2023/05/21 08:42:13;;;;;;;13.20;11.77;;;;;;;;;;5055663;28;20170;-67
2023/05/21 08:44:45;;;;;;;17.13;13.53;;;;;;;;;;5055713;28;20190;-66
2023/05/21 08:47:13;;;;;;;15.17;12.13;;;;;;;;;;5038348;28;20545;-66
2023/05/21 08:49:41;;;;;;;14.77;12.37;;;;;;;;;;5055365;28;20202;-67
2023/05/21 08:52:07;;;;;;;13.53;11.67;;;;;;;;;;5038105;28;20328;-66
2023/05/21 08:54:33;;;;;;;13.57;12.03;;;;;;;;;;5039541;28;20679;-66
2023/05/21 08:57:01;;;;;;;12.27;11.00;;;;;;;;;;5037549;28;20185;-67
2023/05/21 08:59:27;;;;;;;12.80;11.50;;;;;;;;;;5055580;28;20535;-67
2023/05/21 09:01:56;;;;;;;20.20;12.53;;;;;;;;;;5055222;28;20624;-67
2023/05/21 09:04:22;;;;;;;16.37;12.30;;;;;;;;;;5037513;28;20187;-67
2023/05/21 09:06:49;;;;;;;14.20;11.97;;;;;;;;;;5055342;28;20201;-67
2023/05/21 09:09:34;;;;;;;13.47;11.83;;;;;;;;;;5036865;28;20601;-67
2023/05/21 09:12:00;;;;;;;15.67;11.73;;;;;;;;;;5036814;28;20170;-66
2023/05/21 09:14:27;;;;;;;12.33;11.07;;;;;;;;;;5054872;28;20174;-66
2023/05/21 09:16:53;;;;;;;14.10;12.60;;;;;;;;;;5036792;28;20171;-66
2023/05/21 09:19:22;;;;;;;14.67;12.90;;;;;;;;;;5054435;28;20179;-66
2023/05/21 09:21:50;;;;;;;13.37;12.07;;;;;;;;;;5036599;28;20214;-66
2023/05/21 09:24:16;;;;;;;13.63;12.23;;;;;;;;;;5054713;28;20178;-66
2023/05/21 09:26:42;;;;;;;16.83;12.87;;;;;;;;;;5054421;28;20194;-66
2023/05/21 09:29:08;;;;;;;16.37;12.63;;;;;;;;;;5036281;28;20613;-66
2023/05/21 09:31:35;;;;;;;20.13;13.60;;;;;;;;;;5054284;28;20201;-66
2023/05/21 09:34:01;;;;;;;14.07;12.77;;;;;;;;;;5036367;28;20213;-67
2023/05/21 09:36:28;;;;;;;15.33;13.70;;;;;;;;;;5036471;28;20182;-66
2023/05/21 09:38:54;;;;;;;13.80;12.00;;;;;;;;;;5054184;28;20261;-66
2023/05/21 09:41:30;;;;;;;14.87;13.27;;;;;;;;;;5036246;28;20252;-67
2023/05/21 09:43:58;;;;;;;16.10;14.17;;;;;;;;;;5036635;28;20169;-66
2023/05/21 09:46:26;;;;;;;20.43;13.33;;;;;;;;;;5055079;28;20189;-67
2023/05/21 09:48:52;;;;;;;15.53;13.00;;;;;;;;;;5039671;28;20263;-67
2023/05/21 09:51:18;;;;;;;19.73;13.47;;;;;;;;;;5054113;28;20230;-66
2023/05/21 09:53:52;;;;;;;16.47;12.97;;;;;;;;;;5054359;28;20581;-67
2023/05/21 09:56:23;;;;;;;15.67;14.07;;;;;;;;;;5036320;28;20179;-68
2023/05/21 09:58:51;;;;;;;15.23;13.67;;;;;;;;;;5054044;28;20181;-66
2023/05/21 10:01:18;;;;;;;14.77;13.27;;;;;;;;;;5054009;28;20578;-67
2023/05/21 10:03:46;;;;;;;18.40;14.47;;;;;;;;;;5054191;28;20175;-67
2023/05/21 10:06:12;;;;;;;15.97;14.33;;;;;;;;;;5035987;28;20182;-67
2023/05/21 10:08:42;;;;;;;15.17;13.60;;;;;;;;;;5053628;28;20255;-67
2023/05/21 10:11:08;;;;;;;17.70;14.47;;;;;;;;;;5053601;28;20692;-67
2023/05/21 10:13:38;;;;;;;17.33;15.23;;;;;;;;;;5035867;28;20189;-67
2023/05/21 10:16:04;;;;;;;18.40;15.00;;;;;;;;;;5035798;28;20187;-67
2023/05/21 10:18:31;;;;;;;17.80;14.53;;;;;;;;;;5054135;28;20186;-67
2023/05/21 10:20:58;;;;;;;20.70;15.83;;;;;;;;;;5035630;28;20248;-67
2023/05/21 10:23:24;;;;;;;18.13;14.77;;;;;;;;;;5053623;28;20178;-67
2023/05/21 10:25:50;;;;;;;16.60;14.77;;;;;;;;;;5053805;28;20170;-67
2023/05/21 10:28:17;;;;;;;17.20;14.77;;;;;;;;;;5053720;28;20179;-66
2023/05/21 10:30:44;;;;;;;19.10;14.33;;;;;;;;;;5053323;28;20210;-66
2023/05/21 10:33:11;;;;;;;17.57;13.33;;;;;;;;;;5035533;28;20645;-68
2023/05/21 10:35:40;;;;;;;15.00;13.37;;;;;;;;;;5053865;28;20579;-66
2023/05/21 10:38:06;;;;;;;16.50;14.73;;;;;;;;;;5035939;28;20197;-67
2023/05/21 10:40:32;;;;;;;19.67;15.57;;;;;;;;;;5053665;28;20210;-67
2023/05/21 10:43:05;;;;;;;17.07;14.80;;;;;;;;;;5056206;28;20194;-67
2023/05/21 10:45:47;;;;;;;18.80;14.93;;;;;;;;;;5036397;23;20730;-65
2023/05/21 10:48:19;;;;;;;20.00;14.90;;;;;;;;;;5033514;28;20595;-65
2023/05/21 10:50:48;;;;;;;17.10;14.97;;;;;;;;;;5015050;28;20198;-66
2023/05/21 10:53:20;;;;;;;18.40;14.23;;;;;;;;;;5033219;28;20232;-66
2023/05/21 10:55:50;;;;;;;17.63;14.23;;;;;;;;;;5033642;28;20194;-67
2023/05/21 10:58:23;;;;;;;15.17;13.57;;;;;;;;;;5033833;28;20641;-67
2023/05/21 11:00:49;;;;;;;18.20;16.30;;;;;;;;;;5016066;28;20198;-67
2023/05/21 11:03:16;;;;;;;22.17;19.87;;;;;;;;;;5033793;28;20182;-66
2023/05/21 11:05:51;;;;;;;15.07;13.47;;;;;;;;;;5033423;28;20249;-66
2023/05/21 11:08:34;;;;;;;14.57;13.07;;;;;;;;;;5033187;28;20209;-67
2023/05/21 11:11:00;;;;;;;16.40;13.50;;;;;;;;;;5015310;28;20199;-67
2023/05/21 11:13:27;;;;;;;18.53;14.17;;;;;;;;;;5033496;28;20229;-67
2023/05/21 11:16:04;;;;;;;15.50;13.43;;;;;;;;;;5033090;28;20199;-67
2023/05/21 11:18:30;;;;;;;18.27;13.87;;;;;;;;;;5033613;28;20162;-67
2023/05/21 11:21:05;;;;;;;14.90;13.40;;;;;;;;;;5016846;28;20187;-66
2023/05/21 11:23:50;;;;;;;15.07;13.27;;;;;;;;;;5016128;28;20266;-66
2023/05/21 11:26:25;;;;;;;16.93;13.87;;;;;;;;;;5033385;28;20186;-67
2023/05/21 11:29:03;;;;;;;16.40;14.30;;;;;;;;;;5033500;28;20539;-67
2023/05/21 11:31:36;;;;;;;14.20;12.73;;;;;;;;;;5015310;28;20175;-66
2023/05/21 11:34:35;;;;;;;18.57;12.83;;;;;;;;;;5033460;28;20156;-65
2023/05/21 11:37:26;;;;;;;18.50;16.40;;;;;;;;;;4979452;28;20325;-66
2023/05/21 11:39:53;;;;;;;18.27;14.30;;;;;;;;;;5016042;28;20651;-65
2023/05/21 11:42:38;;;;;;;15.00;13.37;;;;;;;;;;5015086;28;20558;-65
2023/05/21 11:45:04;;;;;;;16.87;13.67;;;;;;;;;;5032969;28;20670;-67
2023/05/21 11:47:31;;;;;;;15.00;12.80;;;;;;;;;;5033539;28;20560;-67
2023/05/21 11:49:59;;;;;;;15.37;13.90;;;;;;;;;;5033256;28;20206;-67
2023/05/21 11:52:25;;;;;;;17.23;13.03;;;;;;;;;;5033013;28;20660;-67
2023/05/21 11:54:56;;;;;;;14.40;12.90;;;;;;;;;;5033242;28;20274;-67
2023/05/21 11:57:25;;;;;;;17.23;14.90;;;;;;;;;;5033866;28;20155;-66
2023/05/21 11:59:51;;;;;;;15.80;13.40;;;;;;;;;;5033145;28;20590;-67
2023/05/21 12:02:18;;;;;;;15.67;14.17;;;;;;;;;;5032333;28;20394;-67
2023/05/21 12:04:45;;;;;;;15.47;13.30;;;;;;;;;;5036461;28;20523;-66
2023/05/21 12:07:14;;;;;;;15.33;12.17;;;;;;;;;;5018763;28;20116;-66
2023/05/21 12:09:41;;;;;;;15.33;13.73;;;;;;;;;;5018602;28;20207;-67
2023/05/21 12:12:12;;;;;;;18.90;16.90;;;;;;;;;;5036087;28;20634;-67
2023/05/21 12:14:38;;;;;;;15.93;14.23;;;;;;;;;;5036596;28;20199;-67
2023/05/21 12:17:04;;;;;;;18.87;14.27;;;;;;;;;;5036421;28;20179;-67
2023/05/21 12:19:33;;;;;;;16.70;13.80;;;;;;;;;;5036242;28;20175;-66
2023/05/21 12:22:02;;;;;;;14.33;12.90;;;;;;;;;;5036076;28;20187;-68
2023/05/21 12:24:28;;;;;;;17.43;15.63;;;;;;;;;;5018148;28;20741;-67
2023/05/21 12:26:54;;;;;;;16.33;13.93;;;;;;;;;;5035925;28;20187;-66
2023/05/21 12:29:22;;;;;;;17.33;15.53;;;;;;;;;;5035475;28;20498;-67
2023/05/21 12:31:48;;;;;;;17.73;16.03;;;;;;;;;;5017323;28;20877;-67
2023/05/21 12:34:17;;;;;;;19.97;15.37;;;;;;;;;;5018295;28;20199;-66
2023/05/21 12:36:50;;;;;;;16.97;15.17;;;;;;;;;;5018584;28;20186;-67
2023/05/21 12:39:16;;;;;;;18.80;16.80;;;;;;;;;;5036047;28;20640;-70
2023/05/21 12:41:43;;;;;;;20.63;16.27;;;;;;;;;;5036610;28;20186;-71
2023/05/21 12:44:10;;;;;;;17.73;13.93;;;;;;;;;;5017976;28;20264;-68
2023/05/21 12:46:36;;;;;;;14.67;13.07;;;;;;;;;;5035806;28;20167;-67
2023/05/21 12:49:03;;;;;;;16.17;14.53;;;;;;;;;;5035518;28;20190;-70
2023/05/21 12:51:41;;;;;;;16.17;14.30;;;;;;;;;;5036000;28;20237;-68
2023/05/21 12:54:13;;;;;;;15.70;13.47;;;;;;;;;;5035526;28;20198;-67
2023/05/21 12:56:45;;;;;;;15.63;13.47;;;;;;;;;;5018188;28;20534;-68
2023/05/21 12:59:15;;;;;;;17.43;15.73;;;;;;;;;;5035252;28;20179;-69
2023/05/21 13:01:41;;;;;;;16.17;14.47;;;;;;;;;;5035297;28;20171;-67
2023/05/21 13:04:07;;;;;;;16.60;13.90;;;;;;;;;;5017739;28;20183;-69
2023/05/21 13:06:45;;;;;;;16.17;14.57;;;;;;;;;;5035710;28;20187;-66
2023/05/21 13:09:11;;;;;;;16.17;14.43;;;;;;;;;;5035115;28;20631;-66
2023/05/21 13:11:36;;;;;;;14.13;12.73;;;;;;;;;;5035257;28;20171;-67
2023/05/21 13:14:02;;;;;;;15.20;13.70;;;;;;;;;;5034527;28;20659;-67
2023/05/21 13:16:28;;;;;;;15.77;13.83;;;;;;;;;;5035022;28;20636;-67
2023/05/21 13:18:54;;;;;;;15.83;13.63;;;;;;;;;;5035046;28;20657;-67
2023/05/21 13:21:20;;;;;;;15.13;13.67;;;;;;;;;;5035136;28;20175;-66
2023/05/21 13:23:46;;;;;;;;;;;;;;;;;;5035441;28;20030;-65
2023/05/21 13:26:12;;;;;;;;;;;;;;;;;;5035630;28;19991;-65
2023/05/21 13:28:38;;;;;;;;;;;;;;;;;;5017656;28;19901;-68
2023/05/21 13:31:04;;;;;;;15.55;13.95;;;;;;;;;;5016420;28;20405;-67
2023/05/21 13:33:30;;;;;;;15.30;13.80;;;;;;;;;;5034879;28;20234;-65
2023/05/21 13:35:56;;;;;;;15.63;13.97;;;;;;;;;;5015894;28;20379;-66
2023/05/21 13:38:22;;;;;;;16.47;14.50;;;;;;;;;;5033978;28;20882;-67
2023/05/21 13:40:48;;;;;;;16.70;14.97;;;;;;;;;;5033492;28;20749;-67
2023/05/21 13:43:14;;;;;;;14.77;13.23;;;;;;;;;;5016852;28;20536;-66
2023/05/21 13:45:40;;;;;;;14.27;12.77;;;;;;;;;;5034118;28;20297;-68
2023/05/21 13:48:06;;;;;;;15.37;13.70;;;;;;;;;;5016736;28;20198;-68
2023/05/21 13:50:32;;;;;;;17.90;14.87;;;;;;;;;;5016458;28;20211;-67
2023/05/21 13:52:58;;;;;;;15.43;13.53;;;;;;;;;;5034274;28;20198;-64
2023/05/21 13:55:24;;;;;;;17.70;14.70;;;;;;;;;;5034341;28;20233;-66
2023/05/21 13:57:50;;;;;;;16.10;14.50;;;;;;;;;;5034371;28;20179;-66
2023/05/21 14:00:16;;;;;;;15.53;14.00;;;;;;;;;;5034260;28;20187;-64
2023/05/21 14:02:42;;;;;;;15.53;13.97;;;;;;;;;;5033973;28;20179;-66
2023/05/21 14:05:08;;;;;;;15.80;14.20;;;;;;;;;;5033990;28;20198;-66
2023/05/21 14:07:34;;;;;;;16.47;14.77;;;;;;;;;;5034080;28;20176;-63
2023/05/21 14:10:01;;;;;;;16.87;14.90;;;;;;;;;;5016161;28;20207;-64
2023/05/21 14:12:27;;;;;;;15.80;13.97;;;;;;;;;;5034396;28;20260;-66
2023/05/21 14:14:53;;;;;;;16.27;14.57;;;;;;;;;;5033365;28;20749;-66
2023/05/21 14:17:19;;;;;;;16.15;14.13;;;;;;;;;;5033022;28;20453;-64
2023/05/21 14:19:46;;;;;;;16.08;14.52;;;;;;;;;;5032951;28;20407;-65
2023/05/21 14:22:12;;;;;;;15.20;13.68;;;;;;;;;;5015050;28;20471;-64
2023/05/21 14:24:38;;;;;;;15.43;13.90;;;;;;;;;;5015022;28;20796;-66
2023/05/21 14:27:04;;;;;;;14.47;13.17;;;;;;;;;;5015432;28;20179;-65